Time;durP1;ratioP1;P1;durP2;ratioP2;P2;SDS_P1;SDS_P2;PMS_P1;PMS_P2;Temp;Humidity;BMP_temperature;BMP_pressure;BME280_temperature;BME280_humidity;BME280_pressure;Samples;Min_cycle;Max_cycle;Signal;HPM_P1;HPM_P2
2023/06/21 04:30:33;;;;;;;;;3.00;3.00;;;;;31.18;41.08;101113.44;5079278;27;46510;-78
2023/06/21 04:32:59;;;;;;;;;5.50;4.50;;;;;31.01;41.20;101109.16;5022496;28;46186;-77
2023/06/21 04:35:24;;;;;;;;;4.75;3.75;;;;;30.94;41.58;101122.06;5042208;28;45394;-77
2023/06/21 04:37:50;;;;;;;;;6.00;6.00;;;;;30.99;41.70;101130.66;5042103;28;45150;-78
2023/06/21 04:40:17;;;;;;;;;4.00;3.25;;;;;31.11;41.55;101143.00;5041200;28;45130;-78
2023/06/21 04:42:44;;;;;;;;;5.25;5.00;;;;;31.02;41.36;101146.03;5041516;28;45463;-80
2023/06/21 04:45:16;;;;;;;;;7.00;5.00;;;;;31.05;41.40;101157.56;5040874;28;45363;-78
2023/06/21 04:47:43;;;;;;;;;5.25;5.00;;;;;31.01;41.28;101161.78;5030358;28;45414;-82
2023/06/21 04:50:10;;;;;;;;;6.50;5.25;;;;;30.79;41.93;101171.91;5023433;28;45482;-78
2023/06/21 04:52:37;;;;;;;;;5.00;5.00;;;;;30.66;41.85;101171.75;5022919;28;47362;-78
2023/06/21 04:55:05;;;;;;;;;6.25;6.00;;;;;30.52;42.54;101164.28;5039923;28;45422;-78
2023/06/21 04:57:30;;;;;;;;;6.00;4.75;;;;;30.66;41.93;101179.19;5022532;28;45387;-79
2023/06/21 04:59:55;;;;;;;;;6.00;5.00;;;;;30.77;42.31;101159.34;5041044;28;45215;-77
2023/06/21 05:02:21;;;;;;;;;5.50;5.50;;;;;30.95;41.50;101161.72;5024802;28;47241;-76
2023/06/21 05:04:46;;;;;;;;;5.75;4.50;;;;;31.14;41.71;101170.28;5041783;28;45282;-78
2023/06/21 05:07:11;;;;;;;;;7.25;5.00;;;;;31.24;41.23;101169.97;5038009;28;45399;-78
2023/06/21 05:09:37;;;;;;;;;5.00;5.00;;;;;31.35;40.87;101168.63;5036662;28;45526;-77
2023/06/21 05:12:02;;;;;;;;;7.00;5.50;;;;;31.47;40.84;101181.78;5038546;28;45393;-76
2023/06/21 05:14:27;;;;;;;;;6.75;5.50;;;;;31.51;41.02;101185.88;5019891;28;45344;-77
2023/06/21 05:16:53;;;;;;;;;4.00;4.00;;;;;31.57;41.25;101189.75;5035697;28;45681;-77
2023/06/21 05:19:18;;;;;;;;;6.25;6.25;;;;;31.52;40.79;101195.03;5036010;28;45554;-75
2023/06/21 05:21:44;;;;;;;;;6.50;5.50;;;;;31.51;40.92;101196.09;5018395;28;47254;-79
2023/06/21 05:24:09;;;;;;;;;5.50;4.25;;;;;31.54;40.77;101201.25;5018203;28;45432;-76
2023/06/21 05:26:35;;;;;;;;;7.00;4.75;;;;;31.34;41.47;101194.59;5035577;28;45497;-76
2023/06/21 05:29:00;;;;;;;;;6.75;6.75;;;;;31.16;41.89;101197.78;5035732;28;45424;-77
2023/06/21 05:31:26;;;;;;;;;5.75;5.75;;;;;31.25;41.72;101204.09;5028163;28;47674;-76
2023/06/21 05:33:51;;;;;;;;;4.75;3.75;;;;;31.29;41.43;101197.13;5025114;28;45523;-78
2023/06/21 05:36:17;;;;;;;;;6.75;6.00;;;;;31.44;41.67;101196.03;5008697;28;45838;-78
2023/06/21 05:38:42;;;;;;;;;5.25;3.75;;;;;31.57;41.22;101193.38;5015166;28;48799;-79
2023/06/21 05:41:07;;;;;;;;;9.00;8.25;;;;;31.51;41.44;101191.41;5016088;28;45909;-79
2023/06/21 05:43:33;;;;;;;;;4.25;4.25;;;;;31.36;41.13;101187.81;5015014;28;45630;-80
2023/06/21 05:45:58;;;;;;;;;5.00;5.00;;;;;31.34;40.87;101187.16;5015590;28;45351;-78
2023/06/21 05:48:24;;;;;;;;;7.50;6.00;;;;;31.37;41.69;101189.53;5015064;28;45442;-80
2023/06/21 05:50:50;;;;;;;;;7.50;6.00;;;;;31.39;41.79;101197.66;5015632;28;45940;-78
2023/06/21 05:53:15;;;;;;;;;6.00;6.00;;;;;31.42;41.51;101181.50;4997516;28;45488;-79
2023/06/21 05:55:40;;;;;;;;;6.75;5.75;;;;;31.46;41.22;101181.97;4997529;28;45421;-77
2023/06/21 05:58:06;;;;;;;;;9.25;7.75;;;;;31.51;41.08;101180.31;5015081;28;45246;-76
2023/06/21 06:00:32;;;;;;;;;7.50;7.00;;;;;31.59;41.32;101199.59;5015262;28;47676;-79
2023/06/21 06:02:58;;;;;;;;;7.00;6.00;;;;;31.39;41.56;101197.66;5017802;28;45456;-77
2023/06/21 06:05:23;;;;;;;;;7.50;6.00;;;;;31.51;41.14;101193.31;5035454;28;45325;-76
2023/06/21 06:07:48;;;;;;;;;6.75;6.75;;;;;31.58;40.85;101185.94;5018796;28;45158;-77
2023/06/21 06:10:13;;;;;;;;;8.75;7.00;;;;;31.66;41.35;101201.59;5014592;28;51278;-78
2023/06/21 06:12:39;;;;;;;;;7.75;6.50;;;;;31.84;40.72;101200.09;5015050;28;45526;-77
2023/06/21 06:15:05;;;;;;;;;8.00;6.75;;;;;31.79;40.90;101197.06;5015856;28;45332;-77
2023/06/21 06:17:30;;;;;;;;;6.50;6.50;;;;;31.80;41.02;101201.56;5014909;28;45479;-77
2023/06/21 06:19:56;;;;;;;;;6.25;6.25;;;;;32.07;40.45;101193.50;5015197;28;45371;-78
2023/06/21 06:22:21;;;;;;;;;7.75;7.00;;;;;32.10;40.26;101190.31;5014616;28;45543;-77
2023/06/21 06:24:48;;;;;;;;;5.00;5.00;;;;;32.16;40.19;101195.09;5014593;28;45338;-77
2023/06/21 06:27:14;;;;;;;;;4.75;4.75;;;;;32.40;39.70;101188.25;4996037;28;47289;-77
2023/06/21 06:29:39;;;;;;;;;5.25;5.25;;;;;32.49;39.48;101189.81;4996567;28;46271;-76
2023/06/21 06:32:05;;;;;;;;;5.75;5.75;;;;;32.48;39.80;101201.97;5027185;28;45348;-79
2023/06/21 06:34:30;;;;;;;;;6.50;5.50;;;;;32.34;40.00;101198.22;5029651;28;45561;-78
2023/06/21 06:36:56;;;;;;;;;6.50;6.50;;;;;32.44;39.83;101211.75;5020433;28;45630;-75
2023/06/21 06:39:21;;;;;;;;;7.00;7.00;;;;;32.54;39.81;101204.81;5014942;28;46282;-73
2023/06/21 06:41:46;;;;;;;;;4.75;4.75;;;;;32.56;39.39;101210.16;5015427;28;45300;-75
2023/06/21 06:44:12;;;;;;;;;13.75;7.25;;;;;32.55;39.30;101200.09;5033902;28;45468;-73
2023/06/21 06:46:37;;;;;;;;;6.50;5.75;;;;;32.66;39.41;101210.66;5034255;28;45178;-74
2023/06/21 06:49:02;;;;;;;;;6.50;5.75;;;;;32.67;39.36;101220.69;5031883;28;46044;-74
2023/06/21 06:51:28;;;;;;;;;5.25;3.50;;;;;32.79;39.03;101212.69;5031805;28;45204;-74
2023/06/21 06:53:53;;;;;;;;;6.00;6.00;;;;;32.99;38.99;101219.22;5031331;28;45254;-75
2023/06/21 06:56:18;;;;;;;;;8.25;8.25;;;;;32.86;37.83;101217.22;5033247;28;45501;-78
2023/06/21 06:58:44;;;;;;;;;6.25;6.25;;;;;32.76;38.06;101225.03;5026578;28;46007;-78
2023/06/21 07:01:10;;;;;;;;;6.00;6.00;;;;;32.68;38.57;101225.16;5014376;28;45352;-75
2023/06/21 07:03:35;;;;;;;;;10.00;7.00;;;;;32.87;38.76;101229.19;5022687;28;45524;-75
2023/06/21 07:06:01;;;;;;;;;5.25;5.25;;;;;33.03;38.08;101237.19;5033118;28;45387;-75
2023/06/21 07:08:26;;;;;;;;;6.50;5.50;;;;;33.12;37.49;101235.09;4996763;28;48446;-75
2023/06/21 07:10:52;;;;;;;;;5.75;5.00;;;;;33.21;37.35;101237.53;5014299;28;45863;-74
2023/06/21 07:13:18;;;;;;;;;6.00;4.75;;;;;33.27;36.91;101244.16;5014374;28;45475;-77
2023/06/21 07:15:44;;;;;;;;;5.50;4.50;;;;;33.30;37.32;101227.09;5014195;28;46130;-77
2023/06/21 07:18:11;;;;;;;;;5.00;5.00;;;;;33.45;37.08;101236.13;5012779;28;45477;-75
2023/06/21 07:20:36;;;;;;;;;4.25;4.00;;;;;33.62;36.83;101234.69;4996702;28;45365;-77
2023/06/21 07:23:01;;;;;;;;;5.00;3.75;;;;;33.64;36.42;101228.91;5014525;28;45321;-77
2023/06/21 07:25:27;;;;;;;;;4.25;4.25;;;;;33.69;36.44;101231.91;5028612;28;45534;-75
2023/06/21 07:27:52;;;;;;;;;7.50;4.50;;;;;33.74;36.24;101233.06;5026361;28;45615;-77
2023/06/21 07:30:18;;;;;;;;;5.00;5.00;;;;;33.67;36.59;101228.50;5014015;28;45283;-76
2023/06/21 07:32:46;;;;;;;;;6.00;6.00;;;;;33.63;35.86;101224.41;5043425;28;45541;-78
2023/06/21 07:35:12;;;;;;;;;6.50;5.25;;;;;33.72;35.85;101232.38;5050896;28;45529;-77
2023/06/21 07:37:38;;;;;;;;;5.50;4.00;;;;;33.85;35.83;101255.75;5016071;28;47861;-79
2023/06/21 07:40:05;;;;;;;;;6.75;5.75;;;;;33.88;36.34;101255.31;5033842;28;45539;-77
2023/06/21 07:42:31;;;;;;;;;4.25;4.25;;;;;33.91;36.20;101246.56;5034259;28;45543;-76
2023/06/21 07:44:56;;;;;;;;;4.00;4.00;;;;;33.93;36.18;101225.81;5034146;28;45258;-76
2023/06/21 07:47:22;;;;;;;;;5.25;5.00;;;;;34.00;35.57;101225.81;5034187;28;46158;-77
2023/06/21 07:49:48;;;;;;;;;7.00;4.00;;;;;34.09;35.57;101233.75;5033692;28;45340;-78
2023/06/21 07:52:14;;;;;;;;;6.00;6.00;;;;;34.08;35.43;101226.47;5033083;28;45621;-76
2023/06/21 07:54:39;;;;;;;;;6.75;6.75;;;;;34.06;35.44;101236.09;5033840;28;45201;-78
2023/06/21 07:57:05;;;;;;;;;7.00;5.25;;;;;34.14;35.62;101236.75;5033538;28;45920;-78
2023/06/21 07:59:32;;;;;;;;;7.75;7.25;;;;;34.14;35.32;101238.66;5033723;28;45382;-76
2023/06/21 08:01:57;;;;;;;;;7.25;5.00;;;;;34.16;35.65;101233.75;5015995;28;45507;-78
2023/06/21 08:04:22;;;;;;;;;6.25;5.50;;;;;34.27;35.40;101241.53;5048002;28;45348;-78
2023/06/21 08:06:48;;;;;;;;;9.25;6.50;;;;;34.32;34.96;101243.66;5046296;28;46177;-77
2023/06/21 08:09:13;;;;;;;;;6.50;6.50;;;;;34.41;35.32;101253.50;5037216;28;45361;-79
2023/06/21 08:11:39;;;;;;;;;14.00;11.25;;;;;34.44;35.10;101258.66;5018765;28;45365;-78
2023/06/21 08:14:04;;;;;;;;;9.50;7.00;;;;;34.43;35.06;101255.00;5050954;28;45597;-75
2023/06/21 08:16:30;;;;;;;;;6.50;5.50;;;;;34.37;34.60;101257.75;5050238;28;45358;-77
2023/06/21 08:18:55;;;;;;;;;7.75;7.75;;;;;34.36;35.03;101258.88;5037119;28;45271;-77
2023/06/21 08:21:21;;;;;;;;;7.00;6.75;;;;;34.30;35.13;101257.78;5037316;28;45356;-78
2023/06/21 08:23:46;;;;;;;;;9.50;7.25;;;;;34.25;34.78;101254.78;5037118;28;45415;-77
2023/06/21 08:26:12;;;;;;;;;8.00;7.00;;;;;34.19;34.68;101258.41;5036926;28;51629;-78
2023/06/21 08:28:37;;;;;;;;;7.50;4.50;;;;;34.00;34.90;101251.72;5036439;28;45276;-77
2023/06/21 08:31:02;;;;;;;;;6.00;4.50;;;;;33.80;35.14;101253.59;5023831;28;45488;-75
2023/06/21 08:33:28;;;;;;;;;8.75;7.50;;;;;33.90;34.95;101259.63;5047974;28;45489;-78
2023/06/21 08:35:53;;;;;;;;;9.25;6.50;;;;;33.98;34.91;101255.78;5049999;28;45335;-76
2023/06/21 08:38:18;;;;;;;;;5.00;5.00;;;;;33.97;34.77;101263.28;5036717;28;45438;-75
2023/06/21 08:40:45;;;;;;;;;7.75;5.75;;;;;34.03;34.78;101262.41;5037027;28;45187;-77
2023/06/21 08:43:11;;;;;;;;;5.75;5.75;;;;;34.17;34.85;101263.31;5036379;28;45889;-75
2023/06/21 08:45:37;;;;;;;;;5.50;5.50;;;;;34.08;34.30;101256.22;5018455;28;47233;-76
2023/06/21 08:48:06;;;;;;;;;4.00;4.00;;;;;33.94;34.06;101266.47;5036476;28;45296;-77
2023/06/21 08:50:34;;;;;;;;;10.00;7.75;;;;;33.56;34.53;101248.56;5043998;28;45251;-76
2023/06/21 08:53:05;;;;;;;;;7.00;5.75;;;;;34.00;35.01;101265.63;5056408;28;45466;-76
2023/06/21 08:55:35;;;;;;;;;6.75;5.00;;;;;34.16;34.16;101259.66;5056623;28;45297;-77
2023/06/21 08:58:03;;;;;;;;;5.75;5.75;;;;;34.21;34.46;101272.94;5056029;28;45419;-75
2023/06/21 09:00:34;;;;;;;;;7.00;6.00;;;;;34.36;34.14;101268.06;5056561;28;45368;-76
2023/06/21 09:03:13;;;;;;;;;4.75;3.75;;;;;34.50;34.00;101275.34;5056050;28;45364;-76
2023/06/21 09:06:00;;;;;;;;;4.75;4.75;;;;;34.61;33.63;101276.63;5056223;28;46151;-77
2023/06/21 09:08:26;;;;;;;;;6.75;5.75;;;;;34.71;33.04;101273.41;5048807;28;45474;-76
2023/06/21 09:10:52;;;;;;;;;8.75;5.50;;;;;34.81;33.13;101265.50;5037055;28;45317;-77
2023/06/21 09:13:19;;;;;;;;;7.00;7.00;;;;;34.60;32.84;101274.06;5056058;28;45470;-78
2023/06/21 09:15:47;;;;;;;;;7.25;6.75;;;;;34.40;32.61;101266.56;5041745;28;46463;-77
2023/06/21 09:18:13;;;;;;;;;6.75;5.25;;;;;34.50;33.54;101260.56;5035889;28;45308;-79
2023/06/21 09:20:39;;;;;;;;;7.00;5.25;;;;;34.76;33.03;101268.94;5035163;28;45340;-77
2023/06/21 09:23:05;;;;;;;;;3.50;3.50;;;;;34.93;33.06;101263.78;5035967;28;45597;-77
2023/06/21 09:25:30;;;;;;;;;6.00;6.00;;;;;35.01;32.47;101263.53;5017631;28;46587;-77
2023/06/21 09:27:56;;;;;;;;;8.00;5.00;;;;;35.13;32.66;101270.13;5035946;28;45415;-76
2023/06/21 09:30:23;;;;;;;;;0.75;0.75;;;;;35.00;32.16;101266.53;5035968;28;45303;-77
2023/06/21 09:32:49;;;;;;;;;11.25;6.75;;;;;34.89;32.84;101266.13;5046826;28;45646;-76
2023/06/21 09:35:15;;;;;;;;;7.25;7.25;;;;;34.74;32.61;101271.06;5054532;28;46246;-78
2023/06/21 09:37:41;;;;;;;;;7.50;6.75;;;;;34.82;32.43;101275.56;5035789;28;45339;-77
2023/06/21 09:40:07;;;;;;;;;4.50;4.25;;;;;34.96;32.64;101265.28;5017705;28;45421;-77
2023/06/21 09:42:38;;;;;;;;;8.50;6.50;;;;;35.09;32.28;101273.59;5035476;28;45322;-76
2023/06/21 09:45:10;;;;;;;;;6.00;5.25;;;;;34.95;32.06;101283.06;5035462;28;46270;-77
2023/06/21 09:47:36;;;;;;;;;5.00;5.00;;;;;34.84;32.34;101277.06;5035812;28;45277;-75
2023/06/21 09:50:08;;;;;;;;;6.75;6.75;;;;;34.60;32.48;101274.06;5035404;28;45411;-76
2023/06/21 09:52:33;;;;;;;;;8.25;6.25;;;;;34.73;32.33;101271.25;5035781;28;45361;-77
2023/06/21 09:54:59;;;;;;;;;5.75;5.75;;;;;34.67;32.61;101275.78;5035172;28;46192;-78
2023/06/21 09:57:31;;;;;;;;;5.00;5.00;;;;;34.65;32.30;101272.34;5035469;28;45432;-77
2023/06/21 09:59:59;;;;;;;;;7.75;5.00;;;;;34.78;32.07;101280.72;5035560;28;45340;-78
2023/06/21 10:02:24;;;;;;;;;6.25;6.25;;;;;34.72;32.23;101272.31;5035273;28;45388;-78
2023/06/21 10:04:54;;;;;;;;;5.50;5.50;;;;;34.74;32.46;101278.56;5053489;28;45801;-78
2023/06/21 10:07:24;;;;;;;;;10.00;5.00;;;;;34.82;31.99;101276.41;5043591;28;45387;-78
2023/06/21 10:09:49;;;;;;;;;6.00;4.75;;;;;34.82;32.36;101270.84;5035504;28;45471;-79
2023/06/21 10:12:15;;;;;;;;;7.25;7.25;;;;;34.94;31.70;101285.00;5035295;28;45436;-76
2023/06/21 10:14:41;;;;;;;;;3.75;3.75;;;;;34.90;31.43;101267.84;5035187;28;46119;-77
2023/06/21 10:17:08;;;;;;;;;5.25;5.25;;;;;34.84;32.27;101265.06;5035247;28;45363;-76
2023/06/21 10:19:34;;;;;;;;;6.00;4.75;;;;;34.89;31.99;101263.34;5035373;28;45447;-76
2023/06/21 10:22:09;;;;;;;;;6.25;4.50;;;;;35.02;32.10;101273.59;5034948;28;45413;-77
2023/06/21 10:24:46;;;;;;;;;8.75;5.00;;;;;34.96;31.85;101270.84;5042042;28;45448;-78
2023/06/21 10:27:12;;;;;;;;;7.00;5.00;;;;;34.92;32.19;101274.06;5054784;28;45507;-77
2023/06/21 10:29:42;;;;;;;;;10.00;6.50;;;;;34.89;31.62;101270.84;5055345;28;45930;-78
2023/06/21 10:32:08;;;;;;;;;6.75;5.75;;;;;35.22;31.42;101270.75;5052475;28;45298;-75
2023/06/21 10:34:52;;;;;;;;;7.25;7.25;;;;;35.33;30.94;101267.31;5048369;28;45542;-76
2023/06/21 10:37:48;;;;;;;;;6.00;4.75;;;;;35.48;31.47;101279.06;5036938;28;45367;-75
2023/06/21 10:40:14;;;;;;;;;7.25;6.00;;;;;35.40;30.99;101273.72;4993144;28;45472;-76
2023/06/21 10:42:41;;;;;;;;;5.50;4.00;;;;;35.64;31.39;101270.19;5016613;28;45576;-76
2023/06/21 10:45:09;;;;;;;;;5.00;5.00;;;;;35.74;30.45;101275.31;5016427;28;47703;-77
2023/06/21 10:47:36;;;;;;;;;4.50;4.50;;;;;35.93;30.87;101259.53;5034817;28;45403;-78
2023/06/21 10:50:02;;;;;;;;;5.75;4.75;;;;;36.02;30.44;101249.81;5034648;28;45374;-76
2023/06/21 10:52:30;;;;;;;;;5.00;5.00;;;;;36.13;30.41;101259.41;5034793;28;45332;-76
2023/06/21 10:55:00;;;;;;;;;4.50;4.50;;;;;36.14;30.11;101270.38;5016264;28;46050;-76
2023/06/21 10:57:27;;;;;;;;;5.25;3.75;;;;;35.94;29.94;101259.31;5034347;28;45519;-76
2023/06/21 10:59:59;;;;;;;;;5.50;5.50;;;;;36.11;30.25;101268.00;5034416;28;45363;-78
2023/06/21 11:02:24;;;;;;;;;5.00;4.00;;;;;35.93;29.66;101265.13;5034145;28;45347;-76
2023/06/21 11:05:12;;;;;;;;;6.50;4.75;;;;;36.06;29.32;101258.63;5052274;28;46150;-76
2023/06/21 11:07:38;;;;;;;;;2.50;1.75;;;;;36.12;29.35;101264.16;5039703;28;45488;-78
2023/06/21 11:10:06;;;;;;;;;7.00;6.25;;;;;36.11;29.64;101262.44;5034708;28;45348;-77
2023/06/21 11:12:34;;;;;;;;;4.00;4.00;;;;;36.00;29.38;101265.94;5033808;28;45688;-75
2023/06/21 11:15:00;;;;;;;;;6.25;4.00;;;;;36.03;29.95;101257.13;5034275;28;45344;-76
2023/06/21 11:17:25;;;;;;;;;5.00;5.00;;;;;36.08;29.90;101253.63;5016184;28;45288;-77
2023/06/21 11:19:50;;;;;;;;;4.75;4.75;;;;;36.00;29.87;101261.19;5034399;28;45491;-76
2023/06/21 11:22:18;;;;;;;;;5.75;5.75;;;;;35.73;29.69;101264.41;5033877;28;48313;-77
2023/06/21 11:25:00;;;;;;;;;4.25;3.00;;;;;35.74;29.83;101260.50;5034160;28;45543;-76
2023/06/21 11:27:26;;;;;;;;;5.25;5.25;;;;;35.75;29.90;101265.88;5038145;28;45458;-76
2023/06/21 11:29:59;;;;;;;;;5.00;4.00;;;;;35.78;29.91;101256.19;5054379;28;45276;-75
2023/06/21 11:32:28;;;;;;;;;5.25;5.25;;;;;36.07;30.01;101258.38;5025018;28;46350;-76
2023/06/21 11:34:58;;;;;;;;;6.50;4.00;;;;;36.28;29.31;101265.56;5030689;28;46251;-76
2023/06/21 11:37:47;;;;;;;;;8.50;4.25;;;;;36.21;29.51;101271.19;5012666;28;45428;-76
2023/06/21 11:40:27;;;;;;;;;5.50;4.50;;;;;36.30;29.89;101267.06;5033888;28;45208;-78
2023/06/21 11:42:53;;;;;;;;;4.75;4.00;;;;;36.43;29.30;101271.66;5035354;28;45528;-76
2023/06/21 11:45:32;;;;;;;;;3.50;3.50;;;;;36.59;29.39;101270.22;5019583;28;46009;-76
2023/06/21 11:48:03;;;;;;;;;6.25;4.75;;;;;36.69;27.81;101262.22;5037699;28;45260;-78
2023/06/21 11:50:48;;;;;;;;;4.25;4.25;;;;;36.74;28.68;101256.81;5037828;28;46909;-76
2023/06/21 11:53:22;;;;;;;;;6.75;4.00;;;;;36.71;28.08;101255.31;5019362;28;47294;-76
2023/06/21 11:55:52;;;;;;;;;2.50;2.00;;;;;36.97;28.57;101250.53;5037419;28;46285;-75
2023/06/21 11:58:17;;;;;;;;;6.25;4.25;;;;;37.10;28.09;101245.66;5019067;28;45258;-75
2023/06/21 12:00:44;;;;;;;;;3.00;3.00;;;;;37.24;27.74;101249.19;5037492;28;45237;-78
2023/06/21 12:03:11;;;;;;;;;3.25;3.25;;;;;37.40;27.34;101245.75;5037315;28;45246;-76
2023/06/21 12:05:44;;;;;;;;;5.00;4.00;;;;;37.49;27.51;101251.88;5024042;28;45441;-77
2023/06/21 12:08:10;;;;;;;;;4.00;4.00;;;;;37.64;26.87;101240.31;4999197;28;45321;-77
2023/06/21 12:10:35;;;;;;;;;7.00;5.25;;;;;37.62;27.03;101234.94;5023898;28;45169;-76
2023/06/21 12:13:05;;;;;;;;;3.50;3.00;;;;;37.72;27.27;101231.56;5036911;28;45332;-77
2023/06/21 12:15:30;;;;;;;;;4.50;4.50;;;;;37.98;25.90;101231.19;5037252;28;46291;-76
2023/06/21 12:17:55;;;;;;;;;4.00;4.00;;;;;37.93;25.97;101233.84;5037081;28;45275;-76
2023/06/21 12:20:21;;;;;;;;;4.25;3.00;;;;;38.08;26.10;101233.44;5037500;28;45309;-77
2023/06/21 12:22:47;;;;;;;;;3.00;3.00;;;;;38.21;25.90;101238.81;5018720;28;47705;-76
2023/06/21 12:25:12;;;;;;;;;4.75;4.25;;;;;38.23;25.69;101237.50;5024785;28;46385;-77
2023/06/21 12:27:50;;;;;;;;;4.75;3.75;;;;;38.29;25.67;101234.81;5013729;28;45271;-76
2023/06/21 12:30:15;;;;;;;;;5.00;4.00;;;;;38.21;25.54;101233.22;5037118;28;45378;-76
2023/06/21 12:32:42;;;;;;;;;5.25;5.00;;;;;38.18;25.62;101219.72;5047437;28;45616;-77
2023/06/21 12:35:08;;;;;;;;;4.00;4.00;;;;;38.27;25.09;101229.47;5055066;28;45513;-77
2023/06/21 12:37:33;;;;;;;;;2.75;2.75;;;;;38.30;25.57;101233.72;5036843;28;45364;-76
2023/06/21 12:40:03;;;;;;;;;4.75;4.75;;;;;38.37;25.60;101235.31;5036641;28;45407;-77
2023/06/21 12:42:31;;;;;;;;;4.00;4.00;;;;;38.54;25.53;101227.91;5018629;28;45412;-76
2023/06/21 12:44:57;;;;;;;;;4.50;4.50;;;;;38.46;24.97;101233.00;5036549;28;46183;-77
2023/06/21 12:47:23;;;;;;;;;5.50;5.00;;;;;38.56;25.25;101233.28;5036772;28;45316;-77
2023/06/21 12:49:50;;;;;;;;;4.75;3.25;;;;;38.48;25.33;101219.59;5036666;28;45403;-78
2023/06/21 12:52:15;;;;;;;;;3.75;3.75;;;;;38.48;24.48;101226.06;5036873;28;45312;-76
2023/06/21 12:54:56;;;;;;;;;4.00;4.00;;;;;38.42;24.73;101218.63;5036653;28;46058;-79
2023/06/21 12:57:29;;;;;;;;;3.75;3.75;;;;;38.27;24.47;101220.22;5036545;28;45281;-77
2023/06/21 12:59:54;;;;;;;;;3.00;3.00;;;;;38.28;24.60;101235.94;5036729;28;45319;-77
2023/06/21 13:02:26;;;;;;;;;3.75;3.75;;;;;38.24;24.79;101230.78;5036364;28;45482;-78
2023/06/21 13:04:53;;;;;;;;;3.50;3.50;;;;;38.39;24.30;101233.13;5054712;28;46447;-77
2023/06/21 13:07:18;;;;;;;;;5.00;4.00;;;;;38.40;24.75;101223.63;5044550;28;45505;-78
2023/06/21 13:09:43;;;;;;;;;3.75;3.75;;;;;38.61;23.79;101225.03;5040300;28;45497;-77
2023/06/21 13:12:09;;;;;;;;;3.25;3.25;;;;;38.87;23.54;101237.69;5050713;28;45576;-76
2023/06/21 13:14:34;;;;;;;;;4.00;4.00;;;;;38.88;23.47;101234.63;5048273;28;45287;-73
2023/06/21 13:16:59;;;;;;;;;4.50;3.25;;;;;39.29;23.30;101247.66;5046969;28;45303;-76
2023/06/21 13:19:25;;;;;;;;;2.00;2.00;;;;;39.39;22.51;101252.63;5048945;28;45334;-76
2023/06/21 13:21:50;;;;;;;;;0.00;0.00;;;;;39.70;22.24;101251.31;5046090;28;45246;-76
2023/06/21 13:24:16;;;;;;;;;2.25;2.25;;;;;39.80;22.22;101242.25;5048522;28;46335;-77
2023/06/21 13:26:41;;;;;;;;;4.00;4.00;;;;;39.99;21.80;101247.41;5045909;28;45407;-76
2023/06/21 13:29:06;;;;;;;;;2.00;2.00;;;;;40.18;22.30;101248.03;5051820;28;45429;-78
2023/06/21 13:31:33;;;;;;;;;3.00;3.00;;;;;40.34;21.54;101250.03;5050732;28;54695;-78
2023/06/21 13:33:58;;;;;;;;;1.75;1.75;;;;;40.55;21.02;101241.94;5047076;28;45434;-78
2023/06/21 13:36:27;;;;;;;;;4.00;4.00;;;;;40.66;21.33;101241.00;5027028;28;46146;-78
2023/06/21 13:38:52;;;;;;;;;3.50;3.00;;;;;40.60;21.18;101239.22;5036204;28;45189;-79
2023/06/21 13:41:18;;;;;;;;;5.00;3.50;;;;;40.37;20.69;101232.66;5035411;28;45301;-78
2023/06/21 13:43:44;;;;;;;;;6.50;2.75;;;;;40.35;21.45;101234.03;5035515;28;46368;-80
2023/06/21 13:46:09;;;;;;;;;2.50;2.50;;;;;40.43;21.01;101248.50;5039062;28;45348;-78
2023/06/21 13:48:35;;;;;;;;;4.25;4.25;;;;;40.59;21.30;101243.13;5055809;28;45486;-79
2023/06/21 13:51:00;;;;;;;;;4.00;3.75;;;;;40.49;20.61;101237.38;5055721;28;45388;-78
2023/06/21 13:53:27;;;;;;;;;2.50;2.00;;;;;40.53;20.66;101227.28;5055489;28;45432;-79
2023/06/21 13:55:52;;;;;;;;;3.00;3.00;;;;;40.88;20.58;101227.03;5055984;28;45311;-78
2023/06/21 13:58:18;;;;;;;;;3.50;2.00;;;;;40.92;20.03;101223.41;5055471;28;45355;-79
2023/06/21 14:00:43;;;;;;;;;2.25;2.25;;;;;41.07;21.14;101214.34;5037384;28;46176;-79
2023/06/21 14:03:09;;;;;;;;;3.00;3.00;;;;;40.89;20.00;101217.47;5055881;28;46637;-79
2023/06/21 14:05:34;;;;;;;;;3.00;2.75;;;;;40.67;20.88;101220.19;5045230;28;45352;-79
2023/06/21 14:08:00;;;;;;;;;2.25;2.25;;;;;40.88;20.21;101213.81;5052884;28;45316;-82
2023/06/21 14:10:25;;;;;;;;;1.25;1.25;;;;;40.72;20.48;101226.81;5032652;28;45442;-74
2023/06/21 14:12:50;;;;;;;;;4.75;3.00;;;;;40.80;19.70;101217.91;5028086;28;47039;-75
2023/06/21 14:15:16;;;;;;;;;2.75;2.75;;;;;40.72;20.19;101221.19;5055634;28;45376;-74
2023/06/21 14:17:42;;;;;;;;;3.25;3.00;;;;;41.08;20.38;101221.69;5055918;28;45211;-77
2023/06/21 14:20:09;;;;;;;;;3.25;3.25;;;;;41.16;19.81;101229.72;5036920;28;45557;-76
2023/06/21 14:22:38;;;;;;;;;3.25;3.25;;;;;41.20;19.89;101230.88;5055525;28;46130;-75
2023/06/21 14:25:06;;;;;;;;;3.00;3.00;;;;;40.55;19.61;101234.38;5052474;28;45386;-78
2023/06/21 14:27:31;;;;;;;;;5.25;4.00;;;;;40.40;20.13;101225.69;5055208;28;45347;-75
2023/06/21 14:30:01;;;;;;;;;2.75;2.00;;;;;40.36;21.24;101232.91;5055344;28;45434;-74
2023/06/21 14:32:30;;;;;;;;;4.75;4.00;;;;;40.37;21.29;101229.88;5050146;28;46016;-75
2023/06/21 14:34:56;;;;;;;;;6.00;4.25;;;;;40.55;21.67;101230.72;5052247;28;45319;-75
2023/06/21 14:37:24;;;;;;;;;5.00;3.25;;;;;40.55;21.11;101228.75;5036792;28;45344;-75
2023/06/21 14:39:49;;;;;;;;;2.75;2.75;;;;;40.37;21.48;101215.81;5016862;28;45475;-75
2023/06/21 14:42:15;;;;;;;;;4.75;3.75;;;;;40.33;21.98;101220.22;5034494;28;46142;-75
2023/06/21 14:44:42;;;;;;;;;6.75;4.00;;;;;40.31;21.94;101218.81;5035109;28;45265;-73
2023/06/21 14:47:08;;;;;;;;;4.75;3.50;;;;;40.18;21.82;101203.09;5017132;28;45456;-75
2023/06/21 14:49:34;;;;;;;;;4.00;4.00;;;;;40.11;21.96;101221.22;5034592;28;45498;-75
2023/06/21 14:52:00;;;;;;;;;5.50;3.00;;;;;39.98;21.96;101214.81;5034419;28;45430;-76
2023/06/21 14:54:26;;;;;;;;;6.00;5.00;;;;;39.90;22.33;101214.41;5034835;28;45309;-75
2023/06/21 14:56:53;;;;;;;;;5.50;5.25;;;;;39.89;22.61;101224.78;5034326;28;45493;-74
2023/06/21 14:59:18;;;;;;;;;5.50;5.50;;;;;39.87;22.16;101221.34;5034831;28;45396;-75
2023/06/21 15:01:43;;;;;;;;;4.00;4.00;;;;;39.77;22.63;101217.47;5034424;28;46958;-75
2023/06/21 15:04:09;;;;;;;;;4.50;3.50;;;;;39.75;21.80;101214.91;5047039;28;45481;-75
2023/06/21 15:06:36;;;;;;;;;7.00;4.50;;;;;39.79;22.12;101224.53;5049087;28;45329;-75
2023/06/21 15:09:01;;;;;;;;;5.00;5.00;;;;;39.75;21.71;101223.34;5034324;28;46214;-74
2023/06/21 15:11:27;;;;;;;;;3.25;3.25;;;;;39.71;22.51;101214.56;5033267;28;46014;-74
2023/06/21 15:13:52;;;;;;;;;4.00;4.00;;;;;39.59;22.71;101210.97;5017259;28;45351;-76
2023/06/21 15:16:18;;;;;;;;;10.00;4.25;;;;;39.56;21.93;101210.59;5034121;28;45455;-75
2023/06/21 15:18:43;;;;;;;;;3.00;3.00;;;;;39.50;21.70;101208.78;5033900;28;45562;-75
2023/06/21 15:21:08;;;;;;;;;6.25;5.50;;;;;39.31;22.65;101220.16;5034352;28;45315;-75
2023/06/21 15:23:34;;;;;;;;;8.50;4.00;;;;;39.27;23.23;101216.19;5034433;28;45310;-74
2023/06/21 15:25:59;;;;;;;;;7.00;6.50;;;;;39.24;23.66;101215.81;5033770;28;45374;-75
2023/06/21 15:28:25;;;;;;;;;6.50;5.50;;;;;39.41;23.43;101215.91;5044291;28;45455;-73
2023/06/21 15:30:51;;;;;;;;;5.75;5.00;;;;;39.45;23.92;101209.56;5047620;28;46085;-75
2023/06/21 15:33:17;;;;;;;;;4.75;3.50;;;;;39.55;23.70;101203.31;5045494;28;45295;-75
2023/06/21 15:35:42;;;;;;;;;9.50;6.00;;;;;39.42;24.08;101201.63;5047725;28;45349;-78
2023/06/21 15:38:07;;;;;;;;;6.75;6.75;;;;;39.47;24.56;101203.72;5054490;28;45354;-75
2023/06/21 15:40:33;;;;;;;;;5.50;5.50;;;;;39.54;23.38;101205.25;5048999;28;47100;-75
2023/06/21 15:42:58;;;;;;;;;4.00;4.00;;;;;39.54;23.44;101198.78;5033704;28;45351;-73
2023/06/21 15:45:24;;;;;;;;;5.00;5.00;;;;;39.47;23.09;101198.09;5034320;28;45588;-74
2023/06/21 15:47:49;;;;;;;;;8.50;6.75;;;;;39.56;22.90;101199.38;5034308;28;45444;-74
2023/06/21 15:50:14;;;;;;;;;7.75;7.00;;;;;39.64;22.75;101202.63;5033785;28;46631;-74
2023/06/21 15:52:39;;;;;;;;;4.25;4.25;;;;;39.69;22.54;101196.28;5034044;28;45340;-76